KAFW

Fort Worth Alliance Airport

Fort Worth, Texas, USA
METAR KAFW 182353Z 33009KT 10SM OVC026 04/M02 A3026 RMK AO2 SLP253 T00391017 10056 20039 56001 $
Observed Flight Rules
Nov-18 @ 23:53 UTC (an hour ago) Marginal Visual Flight Rules
Wind Visibility Clouds
330° at 9 knots 10 miles
  • Overcast at 2,600' AGL
Temperatures Readings
Current 4°C / 39°F
Dewpoint -2°C / 28°F
Humidity 65%
Altimeter 30.26" Hg
Pressure 1025.3 hPa
Elevation 233
METAR KAFW 182353Z 33009KT 10SM OVC026 04/M02 A3026 RMK AO2 SLP253 T00391017 10056 20039 56001 $
Observed Flight Rules
Nov-18 @ 23:53 UTC
(an hour ago)
MVFR
Wind Visibility
330° at 9 knots 10 miles
Clouds
  • Overcast at 2,600' AGL
Temperature Dewpoint
4°C / 39°F -2°C / 28°F
Humidity Altimeter Pressure
65% 30.26" Hg 1025.3 hPa